sensor_id;sensor_type;location;lat;lon;timestamp;P1;durP1;ratioP1;P2;durP2;ratioP2
5277;SDS011;2662;51.194;6.614;2022-11-20T00:00:37;16.20;;;9.07;;
5277;SDS011;2662;51.194;6.614;2022-11-20T00:03:05;18.00;;;9.33;;
5277;SDS011;2662;51.194;6.614;2022-11-20T00:05:32;20.07;;;10.07;;
5277;SDS011;2662;51.194;6.614;2022-11-20T00:07:58;17.20;;;9.53;;
5277;SDS011;2662;51.194;6.614;2022-11-20T00:10:25;17.57;;;9.93;;
5277;SDS011;2662;51.194;6.614;2022-11-20T00:12:52;17.70;;;9.73;;
5277;SDS011;2662;51.194;6.614;2022-11-20T00:15:19;15.37;;;9.43;;
5277;SDS011;2662;51.194;6.614;2022-11-20T00:17:46;18.43;;;10.30;;
5277;SDS011;2662;51.194;6.614;2022-11-20T00:20:14;21.73;;;10.37;;
5277;SDS011;2662;51.194;6.614;2022-11-20T00:22:41;18.43;;;10.03;;
5277;SDS011;2662;51.194;6.614;2022-11-20T00:25:07;19.37;;;10.20;;
5277;SDS011;2662;51.194;6.614;2022-11-20T00:27:34;20.10;;;9.70;;
5277;SDS011;2662;51.194;6.614;2022-11-20T00:30:01;21.10;;;10.50;;
5277;SDS011;2662;51.194;6.614;2022-11-20T00:32:28;24.20;;;10.10;;
5277;SDS011;2662;51.194;6.614;2022-11-20T00:34:55;18.27;;;9.60;;
5277;SDS011;2662;51.194;6.614;2022-11-20T00:37:23;21.97;;;10.53;;
5277;SDS011;2662;51.194;6.614;2022-11-20T00:39:50;17.00;;;9.63;;
5277;SDS011;2662;51.194;6.614;2022-11-20T00:42:17;18.60;;;10.17;;
5277;SDS011;2662;51.194;6.614;2022-11-20T00:44:43;18.10;;;9.90;;
5277;SDS011;2662;51.194;6.614;2022-11-20T00:47:10;20.20;;;10.30;;
5277;SDS011;2662;51.194;6.614;2022-11-20T00:49:37;19.50;;;9.90;;
5277;SDS011;2662;51.194;6.614;2022-11-20T00:52:04;19.07;;;10.20;;
5277;SDS011;2662;51.194;6.614;2022-11-20T00:54:32;18.67;;;10.43;;
5277;SDS011;2662;51.194;6.614;2022-11-20T00:56:58;16.73;;;9.83;;
5277;SDS011;2662;51.194;6.614;2022-11-20T00:59:25;16.23;;;9.77;;
5277;SDS011;2662;51.194;6.614;2022-11-20T01:01:52;20.60;;;9.83;;
5277;SDS011;2662;51.194;6.614;2022-11-20T01:04:18;16.97;;;10.00;;
5277;SDS011;2662;51.194;6.614;2022-11-20T01:06:45;18.10;;;9.90;;
5277;SDS011;2662;51.194;6.614;2022-11-20T01:09:13;19.37;;;10.20;;
5277;SDS011;2662;51.194;6.614;2022-11-20T01:11:42;19.23;;;9.90;;
5277;SDS011;2662;51.194;6.614;2022-11-20T01:14:11;20.23;;;11.03;;
5277;SDS011;2662;51.194;6.614;2022-11-20T01:16:40;22.23;;;11.23;;
5277;SDS011;2662;51.194;6.614;2022-11-20T01:19:09;19.30;;;10.53;;
5277;SDS011;2662;51.194;6.614;2022-11-20T01:21:39;20.10;;;10.40;;
5277;SDS011;2662;51.194;6.614;2022-11-20T01:24:07;19.90;;;10.53;;
5277;SDS011;2662;51.194;6.614;2022-11-20T01:26:37;19.23;;;10.67;;
5277;SDS011;2662;51.194;6.614;2022-11-20T01:29:06;20.33;;;10.50;;
5277;SDS011;2662;51.194;6.614;2022-11-20T01:31:36;22.80;;;10.40;;
5277;SDS011;2662;51.194;6.614;2022-11-20T01:34:04;17.97;;;10.20;;
5277;SDS011;2662;51.194;6.614;2022-11-20T01:36:32;18.93;;;10.60;;
5277;SDS011;2662;51.194;6.614;2022-11-20T01:39:02;16.07;;;9.83;;
5277;SDS011;2662;51.194;6.614;2022-11-20T01:41:31;19.43;;;10.07;;
5277;SDS011;2662;51.194;6.614;2022-11-20T01:44:18;20.97;;;10.00;;
5277;SDS011;2662;51.194;6.614;2022-11-20T01:46:49;19.27;;;9.90;;
5277;SDS011;2662;51.194;6.614;2022-11-20T01:49:21;21.03;;;10.60;;
5277;SDS011;2662;51.194;6.614;2022-11-20T01:51:51;22.20;;;12.07;;
5277;SDS011;2662;51.194;6.614;2022-11-20T01:54:21;21.67;;;10.43;;
5277;SDS011;2662;51.194;6.614;2022-11-20T01:56:51;17.40;;;9.93;;
5277;SDS011;2662;51.194;6.614;2022-11-20T01:59:24;21.53;;;10.50;;
5277;SDS011;2662;51.194;6.614;2022-11-20T02:01:53;18.90;;;10.20;;
5277;SDS011;2662;51.194;6.614;2022-11-20T02:04:20;22.13;;;12.00;;
5277;SDS011;2662;51.194;6.614;2022-11-20T02:06:49;20.53;;;11.07;;
5277;SDS011;2662;51.194;6.614;2022-11-20T02:09:19;20.77;;;11.50;;
5277;SDS011;2662;51.194;6.614;2022-11-20T02:11:46;20.00;;;10.77;;
5277;SDS011;2662;51.194;6.614;2022-11-20T02:14:12;23.07;;;11.33;;
5277;SDS011;2662;51.194;6.614;2022-11-20T02:16:44;21.27;;;10.27;;
5277;SDS011;2662;51.194;6.614;2022-11-20T02:19:16;20.23;;;10.03;;
5277;SDS011;2662;51.194;6.614;2022-11-20T02:21:49;20.70;;;10.60;;
5277;SDS011;2662;51.194;6.614;2022-11-20T02:24:25;21.90;;;10.17;;
5277;SDS011;2662;51.194;6.614;2022-11-20T02:26:52;26.10;;;12.13;;
5277;SDS011;2662;51.194;6.614;2022-11-20T02:29:23;20.77;;;11.10;;
5277;SDS011;2662;51.194;6.614;2022-11-20T02:31:51;22.37;;;11.63;;
5277;SDS011;2662;51.194;6.614;2022-11-20T02:34:21;19.13;;;10.80;;
5277;SDS011;2662;51.194;6.614;2022-11-20T02:36:47;22.23;;;11.43;;
5277;SDS011;2662;51.194;6.614;2022-11-20T02:39:15;23.73;;;11.23;;
5277;SDS011;2662;51.194;6.614;2022-11-20T02:41:44;18.23;;;10.30;;
5277;SDS011;2662;51.194;6.614;2022-11-20T02:44:10;25.03;;;10.57;;
5277;SDS011;2662;51.194;6.614;2022-11-20T02:46:37;25.93;;;11.83;;
5277;SDS011;2662;51.194;6.614;2022-11-20T02:49:04;20.67;;;10.53;;
5277;SDS011;2662;51.194;6.614;2022-11-20T02:51:31;25.50;;;10.77;;
5277;SDS011;2662;51.194;6.614;2022-11-20T02:53:58;19.57;;;11.00;;
5277;SDS011;2662;51.194;6.614;2022-11-20T02:56:25;20.77;;;10.47;;
5277;SDS011;2662;51.194;6.614;2022-11-20T02:58:54;22.53;;;9.93;;
5277;SDS011;2662;51.194;6.614;2022-11-20T03:01:20;23.00;;;12.17;;
5277;SDS011;2662;51.194;6.614;2022-11-20T03:03:47;29.80;;;11.33;;
5277;SDS011;2662;51.194;6.614;2022-11-20T03:06:14;20.97;;;10.10;;
5277;SDS011;2662;51.194;6.614;2022-11-20T03:08:41;21.23;;;10.43;;
5277;SDS011;2662;51.194;6.614;2022-11-20T03:11:09;20.97;;;11.07;;
5277;SDS011;2662;51.194;6.614;2022-11-20T03:13:36;18.10;;;10.40;;
5277;SDS011;2662;51.194;6.614;2022-11-20T03:16:12;19.77;;;10.97;;
5277;SDS011;2662;51.194;6.614;2022-11-20T03:18:39;21.33;;;11.77;;
5277;SDS011;2662;51.194;6.614;2022-11-20T03:21:07;21.80;;;10.73;;
5277;SDS011;2662;51.194;6.614;2022-11-20T03:23:35;19.37;;;10.37;;
5277;SDS011;2662;51.194;6.614;2022-11-20T03:26:09;19.83;;;11.07;;
5277;SDS011;2662;51.194;6.614;2022-11-20T03:28:38;20.70;;;10.47;;
5277;SDS011;2662;51.194;6.614;2022-11-20T03:31:05;22.77;;;11.00;;
5277;SDS011;2662;51.194;6.614;2022-11-20T03:33:35;20.07;;;10.60;;
5277;SDS011;2662;51.194;6.614;2022-11-20T03:36:02;23.13;;;10.97;;
5277;SDS011;2662;51.194;6.614;2022-11-20T03:38:30;17.40;;;10.67;;
5277;SDS011;2662;51.194;6.614;2022-11-20T03:41:00;20.23;;;11.10;;
5277;SDS011;2662;51.194;6.614;2022-11-20T03:43:28;25.07;;;11.23;;
5277;SDS011;2662;51.194;6.614;2022-11-20T03:45:55;21.67;;;11.37;;
5277;SDS011;2662;51.194;6.614;2022-11-20T03:48:21;21.00;;;10.00;;
5277;SDS011;2662;51.194;6.614;2022-11-20T03:50:49;24.70;;;13.10;;
5277;SDS011;2662;51.194;6.614;2022-11-20T03:53:17;26.33;;;12.10;;
5277;SDS011;2662;51.194;6.614;2022-11-20T03:55:45;25.30;;;12.40;;
5277;SDS011;2662;51.194;6.614;2022-11-20T03:58:17;24.00;;;11.87;;
5277;SDS011;2662;51.194;6.614;2022-11-20T04:00:43;22.30;;;11.50;;
5277;SDS011;2662;51.194;6.614;2022-11-20T04:03:10;26.30;;;12.30;;
5277;SDS011;2662;51.194;6.614;2022-11-20T04:05:37;24.83;;;12.67;;
5277;SDS011;2662;51.194;6.614;2022-11-20T04:08:05;23.70;;;12.10;;
5277;SDS011;2662;51.194;6.614;2022-11-20T04:10:32;24.60;;;12.23;;
5277;SDS011;2662;51.194;6.614;2022-11-20T04:12:59;22.07;;;11.73;;
5277;SDS011;2662;51.194;6.614;2022-11-20T04:15:25;24.10;;;12.93;;
5277;SDS011;2662;51.194;6.614;2022-11-20T04:17:53;22.40;;;11.27;;
5277;SDS011;2662;51.194;6.614;2022-11-20T04:20:20;24.93;;;12.10;;
5277;SDS011;2662;51.194;6.614;2022-11-20T04:22:47;19.73;;;11.33;;
5277;SDS011;2662;51.194;6.614;2022-11-20T04:25:15;21.67;;;11.17;;
5277;SDS011;2662;51.194;6.614;2022-11-20T04:27:42;24.90;;;12.70;;
5277;SDS011;2662;51.194;6.614;2022-11-20T04:30:09;21.00;;;11.03;;
5277;SDS011;2662;51.194;6.614;2022-11-20T04:32:36;29.30;;;12.27;;
5277;SDS011;2662;51.194;6.614;2022-11-20T04:35:03;22.67;;;11.87;;
5277;SDS011;2662;51.194;6.614;2022-11-20T04:37:30;21.33;;;11.47;;
5277;SDS011;2662;51.194;6.614;2022-11-20T04:39:57;24.33;;;13.03;;
5277;SDS011;2662;51.194;6.614;2022-11-20T04:42:25;25.97;;;12.83;;
5277;SDS011;2662;51.194;6.614;2022-11-20T04:44:54;25.73;;;12.00;;
5277;SDS011;2662;51.194;6.614;2022-11-20T04:47:21;27.43;;;13.70;;
5277;SDS011;2662;51.194;6.614;2022-11-20T04:49:48;24.80;;;12.67;;
5277;SDS011;2662;51.194;6.614;2022-11-20T04:52:15;34.30;;;13.17;;
5277;SDS011;2662;51.194;6.614;2022-11-20T04:54:41;32.83;;;11.83;;
5277;SDS011;2662;51.194;6.614;2022-11-20T04:57:08;24.17;;;12.13;;
5277;SDS011;2662;51.194;6.614;2022-11-20T04:59:36;27.80;;;12.87;;
5277;SDS011;2662;51.194;6.614;2022-11-20T05:02:03;26.30;;;12.80;;
5277;SDS011;2662;51.194;6.614;2022-11-20T05:04:29;24.50;;;11.77;;
5277;SDS011;2662;51.194;6.614;2022-11-20T05:06:56;24.50;;;12.50;;
5277;SDS011;2662;51.194;6.614;2022-11-20T05:09:23;23.70;;;11.73;;
5277;SDS011;2662;51.194;6.614;2022-11-20T05:11:49;24.40;;;12.17;;
5277;SDS011;2662;51.194;6.614;2022-11-20T05:14:16;25.70;;;13.50;;
5277;SDS011;2662;51.194;6.614;2022-11-20T05:16:44;28.37;;;13.30;;
5277;SDS011;2662;51.194;6.614;2022-11-20T05:19:11;33.20;;;14.13;;
5277;SDS011;2662;51.194;6.614;2022-11-20T05:21:38;27.00;;;14.10;;
5277;SDS011;2662;51.194;6.614;2022-11-20T05:24:05;27.77;;;12.70;;
5277;SDS011;2662;51.194;6.614;2022-11-20T05:26:32;25.73;;;13.67;;
5277;SDS011;2662;51.194;6.614;2022-11-20T05:28:59;25.13;;;13.30;;
5277;SDS011;2662;51.194;6.614;2022-11-20T05:31:25;31.13;;;13.40;;
5277;SDS011;2662;51.194;6.614;2022-11-20T05:33:54;23.70;;;13.17;;
5277;SDS011;2662;51.194;6.614;2022-11-20T05:36:21;24.50;;;12.73;;
5277;SDS011;2662;51.194;6.614;2022-11-20T05:38:48;24.67;;;13.37;;
5277;SDS011;2662;51.194;6.614;2022-11-20T05:41:16;23.50;;;12.97;;
5277;SDS011;2662;51.194;6.614;2022-11-20T05:43:45;25.50;;;13.60;;
5277;SDS011;2662;51.194;6.614;2022-11-20T05:46:14;26.20;;;12.83;;
5277;SDS011;2662;51.194;6.614;2022-11-20T05:48:42;27.57;;;13.53;;
5277;SDS011;2662;51.194;6.614;2022-11-20T05:51:12;22.87;;;11.90;;
5277;SDS011;2662;51.194;6.614;2022-11-20T05:53:41;21.00;;;11.93;;
5277;SDS011;2662;51.194;6.614;2022-11-20T05:56:09;29.77;;;13.70;;
5277;SDS011;2662;51.194;6.614;2022-11-20T05:58:37;25.60;;;14.00;;
5277;SDS011;2662;51.194;6.614;2022-11-20T06:01:05;25.70;;;13.23;;
5277;SDS011;2662;51.194;6.614;2022-11-20T06:03:33;23.27;;;12.87;;
5277;SDS011;2662;51.194;6.614;2022-11-20T06:06:00;32.93;;;13.53;;
5277;SDS011;2662;51.194;6.614;2022-11-20T06:08:30;26.40;;;12.60;;
5277;SDS011;2662;51.194;6.614;2022-11-20T06:10:57;22.93;;;12.90;;
5277;SDS011;2662;51.194;6.614;2022-11-20T06:13:24;26.97;;;12.77;;
5277;SDS011;2662;51.194;6.614;2022-11-20T06:15:50;21.63;;;12.30;;
5277;SDS011;2662;51.194;6.614;2022-11-20T06:18:18;24.67;;;13.03;;
5277;SDS011;2662;51.194;6.614;2022-11-20T06:20:45;21.27;;;12.17;;
5277;SDS011;2662;51.194;6.614;2022-11-20T06:23:12;23.90;;;12.00;;
5277;SDS011;2662;51.194;6.614;2022-11-20T06:25:41;20.90;;;12.03;;
5277;SDS011;2662;51.194;6.614;2022-11-20T06:28:08;28.40;;;12.40;;
5277;SDS011;2662;51.194;6.614;2022-11-20T06:30:35;20.80;;;12.63;;
5277;SDS011;2662;51.194;6.614;2022-11-20T06:33:02;20.03;;;11.50;;
5277;SDS011;2662;51.194;6.614;2022-11-20T06:35:29;24.30;;;12.70;;
5277;SDS011;2662;51.194;6.614;2022-11-20T06:37:55;26.77;;;12.87;;
5277;SDS011;2662;51.194;6.614;2022-11-20T06:40:22;22.70;;;12.70;;
5277;SDS011;2662;51.194;6.614;2022-11-20T06:42:50;30.53;;;14.40;;
5277;SDS011;2662;51.194;6.614;2022-11-20T06:45:19;26.70;;;12.57;;
5277;SDS011;2662;51.194;6.614;2022-11-20T06:47:46;26.50;;;13.23;;
5277;SDS011;2662;51.194;6.614;2022-11-20T06:50:12;23.10;;;12.83;;
5277;SDS011;2662;51.194;6.614;2022-11-20T06:52:39;23.03;;;12.87;;
5277;SDS011;2662;51.194;6.614;2022-11-20T06:55:06;23.73;;;12.93;;
5277;SDS011;2662;51.194;6.614;2022-11-20T06:57:33;26.70;;;12.37;;
5277;SDS011;2662;51.194;6.614;2022-11-20T07:00:02;29.60;;;13.43;;
5277;SDS011;2662;51.194;6.614;2022-11-20T07:02:29;24.13;;;12.90;;
5277;SDS011;2662;51.194;6.614;2022-11-20T07:04:56;23.47;;;12.50;;
5277;SDS011;2662;51.194;6.614;2022-11-20T07:07:22;36.10;;;13.43;;
5277;SDS011;2662;51.194;6.614;2022-11-20T07:09:49;24.97;;;12.63;;
5277;SDS011;2662;51.194;6.614;2022-11-20T07:12:16;25.80;;;13.63;;
5277;SDS011;2662;51.194;6.614;2022-11-20T07:14:42;27.37;;;13.87;;
5277;SDS011;2662;51.194;6.614;2022-11-20T07:17:11;24.53;;;13.10;;
5277;SDS011;2662;51.194;6.614;2022-11-20T07:19:37;28.37;;;14.20;;
5277;SDS011;2662;51.194;6.614;2022-11-20T07:22:04;29.63;;;13.93;;
5277;SDS011;2662;51.194;6.614;2022-11-20T07:24:31;26.27;;;13.93;;
5277;SDS011;2662;51.194;6.614;2022-11-20T07:26:57;26.37;;;12.77;;
5277;SDS011;2662;51.194;6.614;2022-11-20T07:29:24;22.80;;;13.47;;
5277;SDS011;2662;51.194;6.614;2022-11-20T07:31:51;23.70;;;13.47;;
5277;SDS011;2662;51.194;6.614;2022-11-20T07:34:19;25.67;;;14.63;;
5277;SDS011;2662;51.194;6.614;2022-11-20T07:36:45;24.03;;;13.00;;
5277;SDS011;2662;51.194;6.614;2022-11-20T07:39:12;24.57;;;13.70;;
5277;SDS011;2662;51.194;6.614;2022-11-20T07:41:39;29.30;;;14.00;;
5277;SDS011;2662;51.194;6.614;2022-11-20T07:44:06;29.20;;;13.60;;
5277;SDS011;2662;51.194;6.614;2022-11-20T07:46:32;25.37;;;12.60;;
5277;SDS011;2662;51.194;6.614;2022-11-20T07:48:59;24.17;;;14.20;;
5277;SDS011;2662;51.194;6.614;2022-11-20T07:51:27;28.73;;;13.83;;
5277;SDS011;2662;51.194;6.614;2022-11-20T07:53:54;26.97;;;12.87;;
5277;SDS011;2662;51.194;6.614;2022-11-20T07:56:21;25.80;;;13.97;;
5277;SDS011;2662;51.194;6.614;2022-11-20T07:58:47;25.83;;;14.23;;
5277;SDS011;2662;51.194;6.614;2022-11-20T08:01:14;30.80;;;14.13;;
5277;SDS011;2662;51.194;6.614;2022-11-20T08:03:41;26.57;;;12.87;;
5277;SDS011;2662;51.194;6.614;2022-11-20T08:06:07;26.50;;;13.00;;
5277;SDS011;2662;51.194;6.614;2022-11-20T08:08:36;25.33;;;13.83;;
5277;SDS011;2662;51.194;6.614;2022-11-20T08:11:04;30.90;;;15.10;;
5277;SDS011;2662;51.194;6.614;2022-11-20T08:13:49;34.83;;;17.93;;
5277;SDS011;2662;51.194;6.614;2022-11-20T08:16:33;27.20;;;15.30;;
5277;SDS011;2662;51.194;6.614;2022-11-20T08:18:59;23.10;;;13.00;;
5277;SDS011;2662;51.194;6.614;2022-11-20T08:21:26;21.90;;;13.63;;
5277;SDS011;2662;51.194;6.614;2022-11-20T08:23:54;25.07;;;13.63;;
5277;SDS011;2662;51.194;6.614;2022-11-20T08:26:21;23.50;;;13.10;;
5277;SDS011;2662;51.194;6.614;2022-11-20T08:28:48;21.53;;;13.30;;
5277;SDS011;2662;51.194;6.614;2022-11-20T08:31:15;26.77;;;13.20;;
5277;SDS011;2662;51.194;6.614;2022-11-20T08:33:41;22.57;;;12.90;;
5277;SDS011;2662;51.194;6.614;2022-11-20T08:36:08;25.07;;;12.10;;
5277;SDS011;2662;51.194;6.614;2022-11-20T08:38:35;23.60;;;13.37;;
5277;SDS011;2662;51.194;6.614;2022-11-20T08:41:03;25.40;;;12.20;;
5277;SDS011;2662;51.194;6.614;2022-11-20T08:43:51;21.87;;;12.17;;
5277;SDS011;2662;51.194;6.614;2022-11-20T08:46:20;19.30;;;11.57;;
5277;SDS011;2662;51.194;6.614;2022-11-20T08:48:48;26.07;;;12.83;;
5277;SDS011;2662;51.194;6.614;2022-11-20T08:51:15;26.50;;;12.50;;
5277;SDS011;2662;51.194;6.614;2022-11-20T08:53:42;18.90;;;11.90;;
5277;SDS011;2662;51.194;6.614;2022-11-20T08:56:10;23.27;;;12.80;;
5277;SDS011;2662;51.194;6.614;2022-11-20T08:58:37;25.70;;;13.73;;
5277;SDS011;2662;51.194;6.614;2022-11-20T09:01:04;21.77;;;11.87;;
5277;SDS011;2662;51.194;6.614;2022-11-20T09:03:31;24.27;;;14.20;;
5277;SDS011;2662;51.194;6.614;2022-11-20T09:05:58;23.90;;;13.00;;
5277;SDS011;2662;51.194;6.614;2022-11-20T09:08:26;23.10;;;12.47;;
5277;SDS011;2662;51.194;6.614;2022-11-20T09:10:53;23.10;;;13.30;;
5277;SDS011;2662;51.194;6.614;2022-11-20T09:13:23;39.80;;;14.10;;
5277;SDS011;2662;51.194;6.614;2022-11-20T09:15:52;25.97;;;13.93;;
5277;SDS011;2662;51.194;6.614;2022-11-20T09:18:20;27.23;;;13.50;;
5277;SDS011;2662;51.194;6.614;2022-11-20T09:20:47;30.00;;;14.60;;
5277;SDS011;2662;51.194;6.614;2022-11-20T09:23:14;21.70;;;12.20;;
5277;SDS011;2662;51.194;6.614;2022-11-20T09:25:41;21.20;;;11.77;;
5277;SDS011;2662;51.194;6.614;2022-11-20T09:28:08;27.20;;;13.03;;
5277;SDS011;2662;51.194;6.614;2022-11-20T09:30:36;23.20;;;13.10;;
5277;SDS011;2662;51.194;6.614;2022-11-20T09:33:03;26.63;;;13.33;;
5277;SDS011;2662;51.194;6.614;2022-11-20T09:35:30;24.57;;;13.23;;
5277;SDS011;2662;51.194;6.614;2022-11-20T09:37:57;24.80;;;12.87;;
5277;SDS011;2662;51.194;6.614;2022-11-20T09:40:25;30.77;;;12.60;;
5277;SDS011;2662;51.194;6.614;2022-11-20T09:42:55;26.60;;;13.73;;
5277;SDS011;2662;51.194;6.614;2022-11-20T09:45:26;30.53;;;13.20;;
5277;SDS011;2662;51.194;6.614;2022-11-20T09:48:08;26.23;;;13.50;;
5277;SDS011;2662;51.194;6.614;2022-11-20T09:50:45;27.60;;;13.93;;
5277;SDS011;2662;51.194;6.614;2022-11-20T09:53:20;27.93;;;13.63;;
5277;SDS011;2662;51.194;6.614;2022-11-20T09:55:56;31.40;;;14.67;;
5277;SDS011;2662;51.194;6.614;2022-11-20T09:58:27;32.37;;;14.07;;
5277;SDS011;2662;51.194;6.614;2022-11-20T10:00:58;25.77;;;13.73;;
5277;SDS011;2662;51.194;6.614;2022-11-20T10:03:36;32.93;;;15.27;;
5277;SDS011;2662;51.194;6.614;2022-11-20T10:06:08;40.10;;;14.30;;
5277;SDS011;2662;51.194;6.614;2022-11-20T10:08:39;35.23;;;14.80;;
5277;SDS011;2662;51.194;6.614;2022-11-20T10:11:11;37.20;;;14.67;;
5277;SDS011;2662;51.194;6.614;2022-11-20T10:13:45;39.33;;;16.30;;
5277;SDS011;2662;51.194;6.614;2022-11-20T10:16:21;38.70;;;15.77;;
5277;SDS011;2662;51.194;6.614;2022-11-20T10:19:04;35.53;;;15.97;;
5277;SDS011;2662;51.194;6.614;2022-11-20T10:21:41;34.87;;;15.60;;
5277;SDS011;2662;51.194;6.614;2022-11-20T10:24:37;39.63;;;15.77;;
5277;SDS011;2662;51.194;6.614;2022-11-20T10:27:21;48.07;;;16.50;;
5277;SDS011;2662;51.194;6.614;2022-11-20T10:30:03;38.20;;;16.10;;
5277;SDS011;2662;51.194;6.614;2022-11-20T10:32:36;40.97;;;14.70;;
5277;SDS011;2662;51.194;6.614;2022-11-20T10:35:06;36.20;;;16.20;;
5277;SDS011;2662;51.194;6.614;2022-11-20T10:37:42;33.37;;;15.20;;
5277;SDS011;2662;51.194;6.614;2022-11-20T10:40:17;32.30;;;14.87;;
5277;SDS011;2662;51.194;6.614;2022-11-20T10:42:48;26.77;;;14.20;;
5277;SDS011;2662;51.194;6.614;2022-11-20T10:45:21;28.53;;;14.90;;
5277;SDS011;2662;51.194;6.614;2022-11-20T10:48:07;32.57;;;14.67;;
5277;SDS011;2662;51.194;6.614;2022-11-20T10:50:43;39.73;;;14.30;;
5277;SDS011;2662;51.194;6.614;2022-11-20T10:53:23;34.47;;;13.10;;
5277;SDS011;2662;51.194;6.614;2022-11-20T10:56:04;25.40;;;13.80;;
5277;SDS011;2662;51.194;6.614;2022-11-20T10:58:34;27.67;;;13.13;;
5277;SDS011;2662;51.194;6.614;2022-11-20T11:01:13;27.23;;;13.17;;
5277;SDS011;2662;51.194;6.614;2022-11-20T11:03:41;30.13;;;13.53;;
5277;SDS011;2662;51.194;6.614;2022-11-20T11:06:12;34.10;;;14.43;;
5277;SDS011;2662;51.194;6.614;2022-11-20T11:08:45;23.30;;;12.90;;
5277;SDS011;2662;51.194;6.614;2022-11-20T11:11:18;36.80;;;14.23;;
5277;SDS011;2662;51.194;6.614;2022-11-20T11:13:48;28.50;;;13.03;;
5277;SDS011;2662;51.194;6.614;2022-11-20T11:16:21;27.53;;;13.07;;
5277;SDS011;2662;51.194;6.614;2022-11-20T11:18:49;23.87;;;12.10;;
5277;SDS011;2662;51.194;6.614;2022-11-20T11:21:22;27.10;;;12.70;;
5277;SDS011;2662;51.194;6.614;2022-11-20T11:23:57;26.23;;;12.90;;
5277;SDS011;2662;51.194;6.614;2022-11-20T11:26:25;27.27;;;13.03;;
5277;SDS011;2662;51.194;6.614;2022-11-20T11:28:53;29.47;;;11.87;;
5277;SDS011;2662;51.194;6.614;2022-11-20T11:31:22;29.80;;;11.93;;
5277;SDS011;2662;51.194;6.614;2022-11-20T11:33:49;23.47;;;11.67;;
5277;SDS011;2662;51.194;6.614;2022-11-20T11:36:16;30.53;;;12.77;;
5277;SDS011;2662;51.194;6.614;2022-11-20T11:38:50;26.87;;;12.10;;
5277;SDS011;2662;51.194;6.614;2022-11-20T11:41:19;23.83;;;12.23;;
5277;SDS011;2662;51.194;6.614;2022-11-20T11:43:51;24.83;;;11.80;;
5277;SDS011;2662;51.194;6.614;2022-11-20T11:46:36;22.97;;;11.77;;
5277;SDS011;2662;51.194;6.614;2022-11-20T11:49:11;24.90;;;11.87;;
5277;SDS011;2662;51.194;6.614;2022-11-20T11:51:45;25.37;;;12.20;;
5277;SDS011;2662;51.194;6.614;2022-11-20T11:54:26;23.80;;;11.40;;
5277;SDS011;2662;51.194;6.614;2022-11-20T11:56:58;25.57;;;12.27;;
5277;SDS011;2662;51.194;6.614;2022-11-20T11:59:28;23.17;;;11.60;;
5277;SDS011;2662;51.194;6.614;2022-11-20T12:02:11;24.10;;;11.33;;
5277;SDS011;2662;51.194;6.614;2022-11-20T12:04:49;20.90;;;11.87;;
5277;SDS011;2662;51.194;6.614;2022-11-20T12:07:22;28.37;;;13.13;;
5277;SDS011;2662;51.194;6.614;2022-11-20T12:10:01;28.13;;;11.63;;
5277;SDS011;2662;51.194;6.614;2022-11-20T12:12:29;22.93;;;11.83;;
5277;SDS011;2662;51.194;6.614;2022-11-20T12:15:02;25.13;;;11.67;;
5277;SDS011;2662;51.194;6.614;2022-11-20T12:17:35;24.40;;;11.60;;
5277;SDS011;2662;51.194;6.614;2022-11-20T12:20:02;23.63;;;12.07;;
5277;SDS011;2662;51.194;6.614;2022-11-20T12:22:33;23.43;;;12.17;;
5277;SDS011;2662;51.194;6.614;2022-11-20T12:25:14;31.53;;;12.30;;
5277;SDS011;2662;51.194;6.614;2022-11-20T12:27:48;27.17;;;12.37;;
5277;SDS011;2662;51.194;6.614;2022-11-20T12:30:23;28.70;;;13.53;;
5277;SDS011;2662;51.194;6.614;2022-11-20T12:32:57;24.80;;;12.67;;
5277;SDS011;2662;51.194;6.614;2022-11-20T12:38:42;25.43;;;12.83;;
5277;SDS011;2662;51.194;6.614;2022-11-20T12:41:22;28.20;;;12.97;;
5277;SDS011;2662;51.194;6.614;2022-11-20T12:44:25;25.53;;;12.47;;
5277;SDS011;2662;51.194;6.614;2022-11-20T12:47:54;26.57;;;13.10;;
5277;SDS011;2662;51.194;6.614;2022-11-20T12:50:35;25.40;;;12.13;;
5277;SDS011;2662;51.194;6.614;2022-11-20T12:53:10;26.97;;;13.00;;
5277;SDS011;2662;51.194;6.614;2022-11-20T12:55:52;28.40;;;13.00;;
5277;SDS011;2662;51.194;6.614;2022-11-20T12:58:27;27.03;;;13.07;;
5277;SDS011;2662;51.194;6.614;2022-11-20T13:01:04;29.33;;;13.57;;
5277;SDS011;2662;51.194;6.614;2022-11-20T13:04:06;28.43;;;12.90;;
5277;SDS011;2662;51.194;6.614;2022-11-20T13:06:41;29.17;;;12.73;;
5277;SDS011;2662;51.194;6.614;2022-11-20T13:09:10;29.77;;;13.13;;
5277;SDS011;2662;51.194;6.614;2022-11-20T13:11:41;25.83;;;12.93;;
5277;SDS011;2662;51.194;6.614;2022-11-20T13:14:19;26.70;;;12.80;;
5277;SDS011;2662;51.194;6.614;2022-11-20T13:16:58;26.53;;;13.57;;
5277;SDS011;2662;51.194;6.614;2022-11-20T13:19:30;30.23;;;13.87;;
5277;SDS011;2662;51.194;6.614;2022-11-20T13:21:58;26.70;;;13.17;;
5277;SDS011;2662;51.194;6.614;2022-11-20T13:24:26;27.30;;;13.00;;
5277;SDS011;2662;51.194;6.614;2022-11-20T13:27:02;27.27;;;13.87;;
5277;SDS011;2662;51.194;6.614;2022-11-20T13:29:31;28.90;;;12.57;;
5277;SDS011;2662;51.194;6.614;2022-11-20T13:32:03;28.10;;;13.07;;
5277;SDS011;2662;51.194;6.614;2022-11-20T13:34:32;26.67;;;13.23;;
5277;SDS011;2662;51.194;6.614;2022-11-20T13:37:00;28.53;;;13.43;;
5277;SDS011;2662;51.194;6.614;2022-11-20T13:39:29;26.53;;;13.07;;
5277;SDS011;2662;51.194;6.614;2022-11-20T13:41:58;30.13;;;13.87;;
5277;SDS011;2662;51.194;6.614;2022-11-20T13:44:27;33.73;;;14.60;;
5277;SDS011;2662;51.194;6.614;2022-11-20T13:47:00;29.70;;;13.90;;
5277;SDS011;2662;51.194;6.614;2022-11-20T13:49:29;29.67;;;13.90;;
5277;SDS011;2662;51.194;6.614;2022-11-20T13:52:02;31.97;;;13.97;;
5277;SDS011;2662;51.194;6.614;2022-11-20T13:54:55;28.90;;;13.40;;
5277;SDS011;2662;51.194;6.614;2022-11-20T13:57:42;30.93;;;14.47;;
5277;SDS011;2662;51.194;6.614;2022-11-20T14:00:19;27.90;;;13.87;;
5277;SDS011;2662;51.194;6.614;2022-11-20T14:02:52;28.43;;;13.80;;
5277;SDS011;2662;51.194;6.614;2022-11-20T14:05:27;27.40;;;13.70;;
5277;SDS011;2662;51.194;6.614;2022-11-20T14:07:57;32.53;;;14.10;;
5277;SDS011;2662;51.194;6.614;2022-11-20T14:10:25;29.00;;;14.30;;
5277;SDS011;2662;51.194;6.614;2022-11-20T14:12:54;31.20;;;14.33;;
5277;SDS011;2662;51.194;6.614;2022-11-20T14:15:25;31.83;;;15.17;;
5277;SDS011;2662;51.194;6.614;2022-11-20T14:17:55;26.47;;;13.70;;
5277;SDS011;2662;51.194;6.614;2022-11-20T14:20:23;28.50;;;13.97;;
5277;SDS011;2662;51.194;6.614;2022-11-20T14:22:52;28.97;;;13.60;;
5277;SDS011;2662;51.194;6.614;2022-11-20T14:25:21;32.33;;;14.83;;
5277;SDS011;2662;51.194;6.614;2022-11-20T14:27:52;38.53;;;14.50;;
5277;SDS011;2662;51.194;6.614;2022-11-20T14:30:21;31.10;;;15.03;;
5277;SDS011;2662;51.194;6.614;2022-11-20T14:32:49;28.50;;;12.87;;
5277;SDS011;2662;51.194;6.614;2022-11-20T14:35:19;26.73;;;13.00;;
5277;SDS011;2662;51.194;6.614;2022-11-20T14:37:49;38.13;;;14.23;;
5277;SDS011;2662;51.194;6.614;2022-11-20T14:40:24;25.17;;;13.37;;
5277;SDS011;2662;51.194;6.614;2022-11-20T14:42:53;29.10;;;14.60;;
5277;SDS011;2662;51.194;6.614;2022-11-20T14:45:20;28.07;;;14.50;;
5277;SDS011;2662;51.194;6.614;2022-11-20T14:47:48;33.50;;;13.80;;
5277;SDS011;2662;51.194;6.614;2022-11-20T14:50:17;25.30;;;12.73;;
5277;SDS011;2662;51.194;6.614;2022-11-20T14:52:51;27.30;;;13.50;;
5277;SDS011;2662;51.194;6.614;2022-11-20T14:55:26;28.57;;;13.77;;
5277;SDS011;2662;51.194;6.614;2022-11-20T14:57:54;24.67;;;13.40;;
5277;SDS011;2662;51.194;6.614;2022-11-20T15:00:22;28.73;;;13.70;;
5277;SDS011;2662;51.194;6.614;2022-11-20T15:02:50;28.37;;;13.53;;
5277;SDS011;2662;51.194;6.614;2022-11-20T15:05:19;25.33;;;12.93;;
5277;SDS011;2662;51.194;6.614;2022-11-20T15:07:48;29.57;;;13.43;;